createdAt,value
2023-02-17T00:01:41.022Z,100213.52
2023-02-17T00:04:10.212Z,100210.46
2023-02-17T00:06:39.070Z,100211.88
2023-02-17T00:09:08.147Z,100213.06
2023-02-17T00:11:36.869Z,100213.98
2023-02-17T00:14:05.525Z,100210.69
2023-02-17T00:16:34.368Z,100212.00
2023-02-17T00:19:03.050Z,100211.27
2023-02-17T00:21:33.008Z,100202.73
2023-02-17T00:24:01.783Z,100203.70
2023-02-17T00:26:31.033Z,100205.16
2023-02-17T00:28:59.845Z,100205.66
2023-02-17T00:31:28.866Z,100205.35
2023-02-17T00:33:57.942Z,100204.23
2023-02-17T00:36:27.799Z,100208.48
2023-02-17T00:38:57.838Z,100209.16
2023-02-17T00:41:28.324Z,100201.74
2023-02-17T00:43:57.485Z,100204.34
2023-02-17T00:46:27.204Z,100201.25
2023-02-17T00:48:56.029Z,100200.84
2023-02-17T00:51:25.958Z,100199.45
2023-02-17T00:53:55.050Z,100200.02
2023-02-17T00:56:23.886Z,100196.95
2023-02-17T00:58:52.636Z,100203.42
2023-02-17T01:01:21.797Z,100203.70
2023-02-17T01:03:50.628Z,100198.34
2023-02-17T01:06:24.963Z,100196.66
2023-02-17T01:08:54.739Z,100192.44
2023-02-17T01:11:26.909Z,100193.98
2023-02-17T01:13:57.376Z,100188.83
2023-02-17T01:16:35.471Z,100184.61
2023-02-17T01:19:07.210Z,100186.64
2023-02-17T01:21:36.127Z,100188.35
2023-02-17T01:24:08.109Z,100183.65
2023-02-17T01:26:37.758Z,100180.81
2023-02-17T01:29:08.002Z,100177.06
2023-02-17T01:31:37.486Z,100174.06
2023-02-17T01:34:06.498Z,100172.30
2023-02-17T01:36:35.792Z,100163.83
2023-02-17T01:39:05.172Z,100155.31
2023-02-17T01:41:34.293Z,100152.02
2023-02-17T01:44:15.051Z,100149.64
2023-02-17T01:46:49.795Z,100148.79
2023-02-17T01:49:18.821Z,100147.29
2023-02-17T01:51:51.979Z,100138.69
2023-02-17T01:54:31.090Z,100143.30
2023-02-17T01:57:03.051Z,100137.20
2023-02-17T01:59:33.540Z,100142.00
2023-02-17T02:02:05.808Z,100141.56
2023-02-17T02:04:38.531Z,100139.41
2023-02-17T02:07:14.859Z,100139.49
2023-02-17T02:09:50.947Z,100137.39
2023-02-17T02:12:23.270Z,100133.50
2023-02-17T02:14:54.255Z,100128.99
2023-02-17T02:17:41.861Z,100125.85
2023-02-17T02:20:16.564Z,100130.14
2023-02-17T02:23:01.350Z,100126.05
2023-02-17T02:25:38.931Z,100127.98
2023-02-17T02:28:42.500Z,100129.89
2023-02-17T02:31:33.504Z,100130.78
2023-02-17T02:34:12.482Z,100134.40
2023-02-17T02:36:41.263Z,100136.13
2023-02-17T02:39:16.514Z,100138.21
2023-02-17T02:41:53.030Z,100137.39
2023-02-17T02:44:23.695Z,100139.77
2023-02-17T02:46:59.520Z,100142.48
2023-02-17T02:49:29.904Z,100135.67
2023-02-17T02:52:19.944Z,100134.10
2023-02-17T02:55:03.547Z,100129.63
2023-02-17T02:58:20.118Z,100126.02
2023-02-17T03:01:00.311Z,100120.27
2023-02-17T03:03:45.694Z,100122.25
2023-02-17T03:06:30.230Z,100129.38
2023-02-17T03:09:22.528Z,100133.09
2023-02-17T03:11:52.586Z,100125.14
2023-02-17T03:14:23.303Z,100128.02
2023-02-17T03:16:53.790Z,100135.41
2023-02-17T03:19:24.964Z,100139.66
2023-02-17T03:22:06.745Z,100138.11
2023-02-17T03:24:36.411Z,100135.32
2023-02-17T03:27:05.409Z,100129.86
2023-02-17T03:29:34.349Z,100129.26
2023-02-17T03:32:03.311Z,100128.98
2023-02-17T03:34:32.305Z,100130.84
2023-02-17T03:37:02.157Z,100137.77
2023-02-17T03:39:32.057Z,100132.12
2023-02-17T03:42:01.030Z,100125.02
2023-02-17T03:44:29.999Z,100122.98
2023-02-17T03:46:58.716Z,100124.72
2023-02-17T03:49:27.376Z,100126.15
2023-02-17T03:51:56.409Z,100126.19
2023-02-17T03:54:25.214Z,100128.64
2023-02-17T03:56:54.196Z,100129.55
2023-02-17T03:59:23.821Z,100129.64
2023-02-17T04:01:52.447Z,100137.79
2023-02-17T04:04:21.265Z,100139.84
2023-02-17T04:06:50.178Z,100142.08
2023-02-17T04:09:20.932Z,100148.05
2023-02-17T04:11:50.992Z,100144.88
2023-02-17T04:14:19.827Z,100151.95
2023-02-17T04:16:49.002Z,100150.08
2023-02-17T04:19:18.457Z,100145.11
2023-02-17T04:21:48.974Z,100143.89
2023-02-17T04:24:18.178Z,100140.05
2023-02-17T04:26:47.731Z,100132.67
2023-02-17T04:29:17.149Z,100131.35
2023-02-17T04:31:46.020Z,100135.30
2023-02-17T04:34:14.945Z,100138.45
2023-02-17T04:36:44.582Z,100139.40
2023-02-17T04:39:13.708Z,100138.31
2023-02-17T04:41:42.524Z,100139.23
2023-02-17T04:44:11.675Z,100141.73
2023-02-17T04:46:40.752Z,100141.88
2023-02-17T04:49:10.497Z,100145.15
2023-02-17T04:51:39.464Z,100143.80
2023-02-17T04:54:08.403Z,100144.67
2023-02-17T04:56:37.070Z,100143.98
2023-02-17T04:59:06.176Z,100139.41
2023-02-17T05:01:35.024Z,100136.21
2023-02-17T05:04:04.135Z,100135.11
2023-02-17T05:06:33.030Z,100136.98
2023-02-17T05:09:02.237Z,100136.45
2023-02-17T05:11:31.916Z,100139.15
2023-02-17T05:14:01.559Z,100143.98
2023-02-17T05:16:30.709Z,100144.25
2023-02-17T05:18:59.793Z,100146.42
2023-02-17T05:21:28.818Z,100147.81
2023-02-17T05:23:57.278Z,100144.69
2023-02-17T05:26:27.530Z,100143.45
2023-02-17T05:28:56.244Z,100143.84
2023-02-17T05:31:25.353Z,100148.23
2023-02-17T05:33:55.594Z,100156.19
2023-02-17T05:36:24.776Z,100153.91
2023-02-17T05:38:53.538Z,100151.86
2023-02-17T05:41:22.863Z,100155.59
2023-02-17T05:43:51.766Z,100158.65
2023-02-17T05:46:20.518Z,100163.06
2023-02-17T05:48:49.419Z,100164.06
2023-02-17T05:51:18.330Z,100170.75
2023-02-17T05:53:47.501Z,100167.36
2023-02-17T05:56:16.566Z,100167.89
2023-02-17T05:58:45.500Z,100171.14
2023-02-17T06:01:14.947Z,100170.61
2023-02-17T06:03:43.992Z,100169.40
2023-02-17T06:06:13.259Z,100173.23
2023-02-17T06:08:42.431Z,100180.70
2023-02-17T06:11:11.850Z,100182.05
2023-02-17T06:13:40.983Z,100183.50
2023-02-17T06:16:10.604Z,100184.10
2023-02-17T06:18:39.449Z,100180.85
2023-02-17T06:21:08.467Z,100182.04
2023-02-17T06:23:37.383Z,100185.14
2023-02-17T06:26:06.452Z,100185.52
2023-02-17T06:28:35.830Z,100191.27
2023-02-17T06:31:05.211Z,100194.17
2023-02-17T06:33:34.417Z,100195.48
2023-02-17T06:36:03.708Z,100190.84
2023-02-17T06:38:32.822Z,100195.27
2023-02-17T06:41:02.807Z,100201.08
2023-02-17T06:43:32.151Z,100206.59
2023-02-17T06:46:01.548Z,100204.44
2023-02-17T06:48:33.473Z,100203.80
2023-02-17T06:51:02.394Z,100207.73
2023-02-17T06:53:31.590Z,100200.67
2023-02-17T06:56:01.133Z,100201.79
2023-02-17T06:58:32.099Z,100203.45
2023-02-17T07:01:02.482Z,100208.65
2023-02-17T07:03:32.817Z,100209.13
2023-02-17T07:06:01.713Z,100218.64
2023-02-17T07:08:32.429Z,100226.98
2023-02-17T07:11:13.491Z,100228.83
2023-02-17T07:13:43.511Z,100220.35
2023-02-17T07:16:14.841Z,100220.04
2023-02-17T07:18:44.343Z,100219.38
2023-02-17T07:21:13.333Z,100228.20
2023-02-17T07:23:42.218Z,100230.09
2023-02-17T07:26:12.827Z,100230.74
2023-02-17T07:28:42.254Z,100234.40
2023-02-17T07:31:14.131Z,100235.91
2023-02-17T07:33:44.074Z,100237.80
2023-02-17T07:36:16.469Z,100240.70
2023-02-17T07:38:45.691Z,100238.29
2023-02-17T07:41:17.807Z,100239.72
2023-02-17T07:43:47.608Z,100245.77
2023-02-17T07:46:16.976Z,100246.02
2023-02-17T07:48:47.202Z,100254.01
2023-02-17T07:51:22.618Z,100258.27
2023-02-17T07:53:52.424Z,100262.59
2023-02-17T07:56:22.628Z,100258.71
2023-02-17T07:58:51.807Z,100256.65
2023-02-17T08:01:23.796Z,100257.69
2023-02-17T08:03:53.313Z,100251.85
2023-02-17T08:06:24.817Z,100250.89
2023-02-17T08:09:13.553Z,100249.55
2023-02-17T08:12:02.310Z,100250.55
2023-02-17T08:14:33.818Z,100249.69
2023-02-17T08:17:02.907Z,100248.23
2023-02-17T08:19:46.519Z,100245.73
2023-02-17T08:22:18.243Z,100243.73
2023-02-17T08:24:47.815Z,100240.86
2023-02-17T08:27:17.211Z,100235.30
2023-02-17T08:29:47.426Z,100231.34
2023-02-17T08:32:17.969Z,100233.71
2023-02-17T08:34:47.018Z,100231.73
2023-02-17T08:37:16.347Z,100229.85
2023-02-17T08:39:45.130Z,100233.12
2023-02-17T08:42:14.493Z,100233.83
2023-02-17T08:44:43.635Z,100236.14
2023-02-17T08:47:12.684Z,100240.20
2023-02-17T08:49:42.565Z,100242.24
2023-02-17T08:52:11.822Z,100240.10
2023-02-17T08:54:40.926Z,100237.20
2023-02-17T08:57:10.711Z,100236.88
2023-02-17T08:59:39.727Z,100236.72
2023-02-17T09:02:08.895Z,100242.84
2023-02-17T09:04:38.090Z,100245.65
2023-02-17T09:07:11.123Z,100247.58
2023-02-17T09:09:41.561Z,100248.91
2023-02-17T09:12:10.460Z,100250.40
2023-02-17T09:14:39.323Z,100253.19
2023-02-17T09:17:07.994Z,100252.61
2023-02-17T09:19:40.235Z,100253.80
2023-02-17T09:22:10.905Z,100249.95
2023-02-17T09:24:41.348Z,100248.98
2023-02-17T09:27:10.630Z,100248.25
2023-02-17T09:29:41.343Z,100254.45
2023-02-17T09:32:11.247Z,100254.98
2023-02-17T09:34:41.183Z,100258.55
2023-02-17T09:37:13.401Z,100253.83
2023-02-17T09:39:42.705Z,100252.23
2023-02-17T09:42:25.298Z,100255.55
2023-02-17T09:45:27.533Z,100259.17
2023-02-17T09:48:11.146Z,100262.92
2023-02-17T09:50:47.577Z,100259.25
2023-02-17T09:53:35.462Z,100258.23
2023-02-17T09:56:09.188Z,100253.83
2023-02-17T09:58:43.992Z,100254.98
2023-02-17T10:01:21.474Z,100250.70
2023-02-17T10:04:06.317Z,100256.05
2023-02-17T10:06:40.473Z,100250.31
2023-02-17T10:09:34.363Z,100245.21
2023-02-17T10:12:11.356Z,100247.33
2023-02-17T10:14:52.429Z,100246.80
2023-02-17T10:17:35.034Z,100244.11
2023-02-17T10:20:12.572Z,100245.99
2023-02-17T10:22:47.395Z,100239.28
2023-02-17T10:25:19.376Z,100239.48
2023-02-17T10:28:08.774Z,100239.40
2023-02-17T10:30:58.969Z,100229.00
2023-02-17T10:33:38.354Z,100219.58
2023-02-17T10:36:34.453Z,100216.59
2023-02-17T10:39:12.543Z,100212.07
2023-02-17T10:41:44.887Z,100207.69
2023-02-17T10:44:20.577Z,100210.95
2023-02-17T10:46:51.682Z,100210.98
2023-02-17T10:49:46.661Z,100206.36
2023-02-17T10:52:22.324Z,100209.13
2023-02-17T10:55:00.468Z,100202.68
2023-02-17T10:57:36.152Z,100198.87
2023-02-17T11:00:09.726Z,100194.00
2023-02-17T11:02:48.698Z,100196.89
2023-02-17T11:05:25.221Z,100194.79
2023-02-17T11:08:29.121Z,100190.05
2023-02-17T11:11:25.960Z,100188.70
2023-02-17T11:14:07.566Z,100189.30
2023-02-17T11:16:47.708Z,100186.16
2023-02-17T11:19:28.004Z,100184.67
2023-02-17T11:22:00.175Z,100175.98
2023-02-17T11:24:31.378Z,100168.61
2023-02-17T11:27:06.639Z,100161.02
2023-02-17T11:29:35.748Z,100159.73
2023-02-17T11:32:14.231Z,100160.10
2023-02-17T11:34:44.895Z,100151.73
2023-02-17T11:37:13.857Z,100145.09
2023-02-17T11:39:45.577Z,100141.41
2023-02-17T11:42:22.064Z,100137.85
2023-02-17T11:44:52.605Z,100147.30
2023-02-17T11:47:24.449Z,100145.21
2023-02-17T11:50:15.252Z,100136.84
2023-02-17T11:52:44.219Z,100124.71
2023-02-17T11:55:28.127Z,100133.31
2023-02-17T11:58:07.538Z,100138.57
2023-02-17T12:00:47.770Z,100134.20
2023-02-17T12:03:23.636Z,100132.33
2023-02-17T12:06:11.430Z,100126.92
2023-02-17T12:09:00.746Z,100126.22
2023-02-17T12:11:45.647Z,100123.21
2023-02-17T12:14:24.193Z,100128.36
2023-02-17T12:17:14.246Z,100123.29
2023-02-17T12:20:01.425Z,100115.86
2023-02-17T12:22:44.071Z,100111.16
2023-02-17T12:25:40.331Z,100112.48
2023-02-17T12:28:41.649Z,100111.32
2023-02-17T12:32:04.898Z,100111.02
2023-02-17T12:34:49.891Z,100110.47
2023-02-17T12:37:24.654Z,100108.93
2023-02-17T12:40:36.613Z,100111.10
2023-02-17T12:43:37.389Z,100107.64
2023-02-17T12:46:12.576Z,100104.45
2023-02-17T12:48:53.658Z,100100.16
2023-02-17T12:51:55.894Z,100096.23
2023-02-17T12:54:36.001Z,100096.59
2023-02-17T12:57:10.949Z,100095.92
2023-02-17T12:59:43.678Z,100092.52
2023-02-17T13:02:17.097Z,100090.14
2023-02-17T13:04:51.353Z,100089.30
2023-02-17T13:07:45.512Z,100090.54
2023-02-17T13:10:34.420Z,100090.11
2023-02-17T13:13:26.045Z,100089.52
2023-02-17T13:16:13.752Z,100088.70
2023-02-17T13:18:50.522Z,100083.89
2023-02-17T13:21:25.331Z,100082.09
2023-02-17T13:24:15.408Z,100077.98
2023-02-17T13:26:45.002Z,100080.79
2023-02-17T13:29:26.646Z,100075.23
2023-02-17T13:32:06.822Z,100075.25
2023-02-17T13:34:43.881Z,100068.09
2023-02-17T13:37:35.900Z,100072.02
2023-02-17T13:40:24.764Z,100064.11
2023-02-17T13:42:57.930Z,100065.58
2023-02-17T13:45:28.983Z,100067.62
2023-02-17T13:48:20.442Z,100062.84
2023-02-17T13:50:56.380Z,100063.37
2023-02-17T13:53:37.637Z,100056.80
2023-02-17T13:56:29.440Z,100056.74
2023-02-17T13:59:30.921Z,100050.98
2023-02-17T14:02:01.186Z,100047.60
2023-02-17T14:04:32.295Z,100047.50
2023-02-17T14:07:05.741Z,100049.31
2023-02-17T14:09:36.583Z,100044.62
2023-02-17T14:12:16.336Z,100041.56
2023-02-17T14:14:45.930Z,100040.72
2023-02-17T14:17:33.180Z,100043.30
2023-02-17T14:20:03.129Z,100046.20
2023-02-17T14:22:35.904Z,100042.34
2023-02-17T14:25:27.060Z,100047.02
2023-02-17T14:27:57.154Z,100044.23
2023-02-17T14:30:39.009Z,100041.11
2023-02-17T14:33:28.701Z,100035.17
2023-02-17T14:36:00.712Z,100037.87
2023-02-17T14:38:34.086Z,100035.27
2023-02-17T14:41:05.400Z,100032.73
2023-02-17T14:43:35.675Z,100030.53
2023-02-17T14:46:05.809Z,100032.27
2023-02-17T14:48:35.238Z,100031.15
2023-02-17T14:51:04.299Z,100030.52
2023-02-17T14:53:36.927Z,100030.39
2023-02-17T14:56:38.195Z,100028.49
2023-02-17T14:59:07.610Z,100030.55
2023-02-17T15:01:38.204Z,100031.13
2023-02-17T15:04:07.568Z,100033.86
2023-02-17T15:06:46.237Z,100035.00
2023-02-17T15:09:23.970Z,100037.77
2023-02-17T15:11:53.012Z,100034.10
2023-02-17T15:14:23.399Z,100034.61
2023-02-17T15:16:52.876Z,100033.08
2023-02-17T15:19:22.626Z,100029.04
2023-02-17T15:21:52.640Z,100027.83
2023-02-17T15:24:29.215Z,100025.91
2023-02-17T15:27:00.397Z,100028.96
2023-02-17T15:29:30.545Z,100034.09
2023-02-17T15:32:03.930Z,100037.56
2023-02-17T15:34:34.558Z,100035.40
2023-02-17T15:37:04.391Z,100035.33
2023-02-17T15:39:33.398Z,100037.27
2023-02-17T15:42:07.391Z,100034.52
2023-02-17T15:44:45.033Z,100040.73
2023-02-17T15:47:20.262Z,100046.06
2023-02-17T15:49:49.900Z,100045.29
2023-02-17T15:52:19.043Z,100052.05
2023-02-17T15:54:48.869Z,100056.75
2023-02-17T15:57:23.869Z,100059.86
2023-02-17T15:59:55.822Z,100069.83
2023-02-17T16:02:26.382Z,100072.83
2023-02-17T16:04:55.752Z,100068.55
2023-02-17T16:07:25.318Z,100068.60
2023-02-17T16:09:54.791Z,100067.27
2023-02-17T16:12:27.574Z,100072.09
2023-02-17T16:14:59.853Z,100068.27
2023-02-17T16:17:29.637Z,100068.03
2023-02-17T16:19:59.783Z,100069.76
2023-02-17T16:22:31.307Z,100065.50
2023-02-17T16:25:00.278Z,100073.77
2023-02-17T16:27:30.635Z,100073.32
2023-02-17T16:30:02.376Z,100073.05
2023-02-17T16:32:34.793Z,100077.76
2023-02-17T16:35:05.856Z,100081.45
2023-02-17T16:37:35.775Z,100084.41
2023-02-17T16:40:17.794Z,100090.84
2023-02-17T16:42:46.804Z,100090.84
2023-02-17T16:45:25.789Z,100095.25
2023-02-17T16:47:58.203Z,100092.22
2023-02-17T16:50:35.586Z,100095.83
2023-02-17T16:53:09.399Z,100102.50
2023-02-17T16:55:38.428Z,100101.45
2023-02-17T16:58:19.468Z,100105.19
2023-02-17T17:00:50.211Z,100116.55
2023-02-17T17:03:22.852Z,100118.89
2023-02-17T17:05:53.236Z,100123.58
2023-02-17T17:08:22.516Z,100126.36
2023-02-17T17:10:51.594Z,100129.63
2023-02-17T17:13:21.567Z,100130.33
2023-02-17T17:15:50.573Z,100129.58
2023-02-17T17:18:22.192Z,100130.83
2023-02-17T17:20:51.106Z,100132.46
2023-02-17T17:23:20.719Z,100135.10
2023-02-17T17:25:49.930Z,100135.26
2023-02-17T17:28:20.058Z,100133.58
2023-02-17T17:30:50.130Z,100133.88
2023-02-17T17:33:18.948Z,100139.17
2023-02-17T17:35:48.335Z,100141.64
2023-02-17T17:38:17.168Z,100141.97
2023-02-17T17:40:49.122Z,100149.76
2023-02-17T17:43:23.393Z,100153.09
2023-02-17T17:45:52.972Z,100152.95
2023-02-17T17:48:21.975Z,100153.34
2023-02-17T17:50:51.425Z,100155.60
2023-02-17T17:53:20.423Z,100159.05
2023-02-17T17:55:49.588Z,100154.58
2023-02-17T17:58:18.723Z,100153.42
2023-02-17T18:00:49.861Z,100156.98
2023-02-17T18:03:22.183Z,100153.82
2023-02-17T18:05:52.125Z,100156.95
2023-02-17T18:08:21.740Z,100163.48
2023-02-17T18:10:51.456Z,100163.06
2023-02-17T18:13:21.236Z,100168.28
2023-02-17T18:15:51.651Z,100165.94
2023-02-17T18:18:25.469Z,100167.77
2023-02-17T18:20:55.489Z,100171.81
2023-02-17T18:23:25.517Z,100172.04
2023-02-17T18:25:55.115Z,100178.33
2023-02-17T18:28:24.832Z,100175.77
2023-02-17T18:30:54.873Z,100185.29
2023-02-17T18:33:24.763Z,100189.46
2023-02-17T18:35:54.204Z,100187.77
2023-02-17T18:38:23.141Z,100188.51
2023-02-17T18:40:53.349Z,100189.90
2023-02-17T18:43:23.315Z,100191.39
2023-02-17T18:45:53.600Z,100192.54
2023-02-17T18:48:23.315Z,100192.23
2023-02-17T18:50:52.468Z,100198.85
2023-02-17T18:53:21.240Z,100200.94
2023-02-17T18:55:50.381Z,100205.15
2023-02-17T18:58:19.317Z,100206.09
2023-02-17T19:00:48.038Z,100208.04
2023-02-17T19:03:17.543Z,100209.48
2023-02-17T19:05:46.674Z,100211.67
2023-02-17T19:08:15.593Z,100210.90
2023-02-17T19:10:45.365Z,100208.84
2023-02-17T19:13:14.708Z,100207.17
2023-02-17T19:15:43.770Z,100214.72
2023-02-17T19:18:13.530Z,100214.29
2023-02-17T19:20:44.522Z,100218.89
2023-02-17T19:23:13.571Z,100218.19
2023-02-17T19:25:43.381Z,100215.13
2023-02-17T19:28:13.553Z,100215.71
2023-02-17T19:30:42.458Z,100215.63
2023-02-17T19:33:12.005Z,100215.60
2023-02-17T19:35:43.025Z,100222.19
2023-02-17T19:38:12.612Z,100219.45
2023-02-17T19:40:42.035Z,100224.84
2023-02-17T19:43:11.474Z,100232.83
2023-02-17T19:45:42.007Z,100233.95
2023-02-17T19:48:11.260Z,100238.02
2023-02-17T19:50:40.729Z,100241.25
2023-02-17T19:53:10.638Z,100236.88
2023-02-17T19:55:39.658Z,100240.86
2023-02-17T19:58:08.928Z,100244.17
2023-02-17T20:00:37.726Z,100243.74
2023-02-17T20:03:06.988Z,100243.05
2023-02-17T20:05:41.233Z,100245.42
2023-02-17T20:08:11.218Z,100247.59
2023-02-17T20:10:41.946Z,100243.12
2023-02-17T20:13:11.801Z,100246.50
2023-02-17T20:15:41.908Z,100249.50
2023-02-17T20:18:11.679Z,100251.58
2023-02-17T20:20:41.890Z,100248.50
2023-02-17T20:23:11.153Z,100248.58
2023-02-17T20:25:41.222Z,100246.61
2023-02-17T20:28:11.194Z,100246.30
2023-02-17T20:30:40.535Z,100248.96
2023-02-17T20:33:11.923Z,100247.29
2023-02-17T20:35:41.731Z,100246.98
2023-02-17T20:38:10.720Z,100245.09
2023-02-17T20:40:40.423Z,100244.63
2023-02-17T20:43:12.877Z,100249.67
2023-02-17T20:45:46.196Z,100248.80
2023-02-17T20:48:16.159Z,100253.38
2023-02-17T20:50:45.322Z,100244.69
2023-02-17T20:53:14.694Z,100244.58
2023-02-17T20:55:44.159Z,100247.17
2023-02-17T20:58:13.629Z,100244.50
2023-02-17T21:00:42.743Z,100246.89
2023-02-17T21:03:12.383Z,100245.70
2023-02-17T21:05:42.068Z,100250.02
2023-02-17T21:08:11.852Z,100257.45
2023-02-17T21:10:41.039Z,100255.71
2023-02-17T21:13:10.863Z,100249.86
2023-02-17T21:15:40.003Z,100248.59
2023-02-17T21:18:09.909Z,100249.56
2023-02-17T21:20:38.924Z,100249.62
2023-02-17T21:23:09.027Z,100253.86
2023-02-17T21:25:38.315Z,100250.48
2023-02-17T21:28:07.256Z,100250.95
2023-02-17T21:30:36.880Z,100254.03
2023-02-17T21:33:06.585Z,100253.75
2023-02-17T21:35:35.880Z,100259.55
2023-02-17T21:38:05.269Z,100266.77
2023-02-17T21:40:34.799Z,100266.11
2023-02-17T21:43:22.302Z,100263.14
2023-02-17T21:45:52.217Z,100265.70
2023-02-17T21:48:22.265Z,100265.09
2023-02-17T21:50:51.501Z,100267.46
2023-02-17T21:53:20.681Z,100271.53
2023-02-17T21:55:49.945Z,100273.64
2023-02-17T21:58:19.203Z,100274.88
2023-02-17T22:00:49.833Z,100275.03
2023-02-17T22:03:19.616Z,100273.65
2023-02-17T22:05:49.161Z,100272.44
2023-02-17T22:08:18.471Z,100271.27
2023-02-17T22:10:47.754Z,100269.20
2023-02-17T22:13:17.367Z,100272.87
2023-02-17T22:15:46.584Z,100276.23
2023-02-17T22:18:15.713Z,100281.52
2023-02-17T22:20:45.297Z,100283.80
2023-02-17T22:23:14.699Z,100286.96
2023-02-17T22:25:43.955Z,100287.45
2023-02-17T22:28:14.494Z,100292.49
2023-02-17T22:30:50.704Z,100290.71
2023-02-17T22:33:20.066Z,100287.89
2023-02-17T22:36:07.874Z,100282.89
2023-02-17T22:38:37.927Z,100283.02
2023-02-17T22:41:09.050Z,100279.52
2023-02-17T22:43:39.961Z,100285.07
2023-02-17T22:46:10.843Z,100284.88
2023-02-17T22:48:40.114Z,100287.06
2023-02-17T22:51:12.875Z,100287.59
2023-02-17T22:53:42.822Z,100289.12
2023-02-17T22:56:12.518Z,100286.15
2023-02-17T22:58:42.102Z,100282.42
2023-02-17T23:01:16.517Z,100282.91
2023-02-17T23:03:46.303Z,100285.01
2023-02-17T23:06:33.880Z,100281.55
2023-02-17T23:09:04.100Z,100274.58
2023-02-17T23:11:51.911Z,100273.55
2023-02-17T23:14:32.548Z,100274.23
2023-02-17T23:17:14.033Z,100276.78
2023-02-17T23:19:43.401Z,100272.48
2023-02-17T23:22:16.987Z,100272.52
2023-02-17T23:24:47.773Z,100275.95
2023-02-17T23:27:17.087Z,100275.20
2023-02-17T23:29:46.078Z,100282.19
2023-02-17T23:32:15.077Z,100274.98
2023-02-17T23:34:44.275Z,100274.60
2023-02-17T23:37:13.435Z,100274.32
2023-02-17T23:39:42.262Z,100274.09
2023-02-17T23:42:11.325Z,100270.70
2023-02-17T23:44:40.428Z,100273.16
2023-02-17T23:47:09.603Z,100275.04
2023-02-17T23:49:38.571Z,100274.83
2023-02-17T23:52:07.054Z,100270.86
2023-02-17T23:54:35.825Z,100269.77
2023-02-17T23:57:05.061Z,100268.20
2023-02-17T23:59:34.109Z,100270.78
